createdAt,value
2019-03-23T00:00:37.811Z,50.12
2019-03-23T00:03:07.366Z,47.60
2019-03-23T00:05:36.765Z,48.65
2019-03-23T00:08:06.167Z,49.35
2019-03-23T00:10:36.629Z,47.95
2019-03-23T00:13:06.115Z,48.48
2019-03-23T00:15:35.654Z,45.75
2019-03-23T00:18:05.150Z,49.35
2019-03-23T00:20:42.982Z,49.18
2019-03-23T00:23:12.387Z,48.13
2019-03-23T00:25:41.856Z,46.85
2019-03-23T00:28:11.260Z,48.25
2019-03-23T00:30:40.644Z,49.20
2019-03-23T00:33:10.062Z,49.00
2019-03-23T00:35:39.452Z,44.93
2019-03-23T00:38:08.871Z,48.10
2019-03-23T00:40:55.430Z,47.65
2019-03-23T00:43:24.826Z,46.08
2019-03-23T00:45:54.349Z,45.83
2019-03-23T00:48:23.999Z,47.25
2019-03-23T00:50:53.514Z,48.33
2019-03-23T00:53:22.924Z,44.38
2019-03-23T00:55:52.334Z,46.42
2019-03-23T00:58:21.899Z,45.88
2019-03-23T01:00:51.303Z,48.15
2019-03-23T01:03:20.702Z,47.95
2019-03-23T01:05:50.472Z,46.25
2019-03-23T01:08:19.870Z,47.75
2019-03-23T01:10:49.276Z,46.60
2019-03-23T01:13:18.674Z,46.35
2019-03-23T01:15:48.206Z,48.58
2019-03-23T01:18:17.755Z,46.08
2019-03-23T01:20:49.862Z,45.88
2019-03-23T01:23:18.251Z,44.53
2019-03-23T01:25:47.671Z,47.13
2019-03-23T01:28:17.077Z,48.28
2019-03-23T01:30:46.482Z,48.92
2019-03-23T01:33:15.883Z,47.23
2019-03-23T01:35:45.291Z,48.48
2019-03-23T01:38:14.699Z,45.38
2019-03-23T01:40:44.367Z,47.78
2019-03-23T01:43:13.919Z,47.65
2019-03-23T01:45:43.321Z,46.85
2019-03-23T01:48:12.719Z,47.50
2019-03-23T01:50:42.123Z,45.60
2019-03-23T01:53:25.382Z,49.40
2019-03-23T01:55:54.811Z,47.60
2019-03-23T01:58:24.206Z,49.63
2019-03-23T02:00:53.688Z,47.27
2019-03-23T02:03:23.165Z,48.65
2019-03-23T02:05:52.547Z,46.80
2019-03-23T02:08:22.040Z,48.40
2019-03-23T02:10:51.579Z,49.15
2019-03-23T02:13:20.986Z,49.60
2019-03-23T02:15:50.451Z,45.60
2019-03-23T02:18:19.863Z,46.08
2019-03-23T02:20:50.035Z,45.48
2019-03-23T02:23:20.675Z,45.60
2019-03-23T02:25:50.068Z,47.15
2019-03-23T02:28:19.475Z,46.40
2019-03-23T02:30:48.895Z,44.50
2019-03-23T02:33:18.299Z,45.30
2019-03-23T02:35:47.717Z,44.45
2019-03-23T02:38:17.136Z,42.93
2019-03-23T02:40:46.529Z,43.42
2019-03-23T02:43:15.997Z,43.90
2019-03-23T02:45:45.411Z,43.38
2019-03-23T02:48:14.931Z,42.48
2019-03-23T02:50:44.335Z,42.43
2019-03-23T02:53:13.743Z,41.58
2019-03-23T02:55:43.155Z,40.85
2019-03-23T02:58:12.556Z,41.88
2019-03-23T03:00:41.947Z,40.10
2019-03-23T03:03:11.357Z,40.48
2019-03-23T03:05:41.707Z,40.03
2019-03-23T03:08:11.197Z,43.20
2019-03-23T03:10:41.864Z,42.27
2019-03-23T03:13:11.324Z,39.88
2019-03-23T03:15:40.716Z,39.63
2019-03-23T03:18:10.362Z,42.03
2019-03-23T03:20:39.862Z,40.03
2019-03-23T03:23:09.334Z,40.15
2019-03-23T03:25:38.813Z,39.83
2019-03-23T03:28:08.208Z,40.60
2019-03-23T03:30:37.852Z,40.35
2019-03-23T03:33:08.397Z,39.65
2019-03-23T03:35:37.860Z,39.38
2019-03-23T03:38:07.268Z,38.05
2019-03-23T03:40:36.817Z,37.53
2019-03-23T03:43:06.227Z,37.45
2019-03-23T03:45:35.683Z,40.85
2019-03-23T03:48:05.063Z,38.23
2019-03-23T03:50:34.480Z,37.95
2019-03-23T03:53:04.007Z,38.73
2019-03-23T03:55:33.407Z,40.98
2019-03-23T03:58:06.660Z,38.35
2019-03-23T04:00:36.906Z,37.25
2019-03-23T04:03:06.367Z,38.50
2019-03-23T04:05:35.763Z,40.25
2019-03-23T04:08:11.789Z,38.38
2019-03-23T04:10:37.323Z,36.42
2019-03-23T04:13:06.768Z,38.13
2019-03-23T04:15:36.149Z,39.18
2019-03-23T04:18:05.544Z,37.00
2019-03-23T04:20:34.998Z,39.55
2019-03-23T04:23:04.380Z,41.88
2019-03-23T04:25:33.787Z,39.15
2019-03-23T04:28:03.249Z,39.92
2019-03-23T04:30:32.697Z,38.50
2019-03-23T04:33:02.289Z,40.20
2019-03-23T04:35:31.767Z,39.38
2019-03-23T04:38:01.235Z,38.88
2019-03-23T04:40:30.695Z,41.05
2019-03-23T04:43:00.086Z,39.92
2019-03-23T04:45:29.484Z,39.85
2019-03-23T04:47:58.879Z,41.30
2019-03-23T04:50:28.270Z,37.48
2019-03-23T04:52:57.662Z,38.83
2019-03-23T04:55:27.069Z,37.30
2019-03-23T04:57:57.538Z,38.08
2019-03-23T05:00:26.934Z,38.02
2019-03-23T05:02:56.334Z,39.30
2019-03-23T05:05:25.725Z,38.20
2019-03-23T05:07:55.130Z,40.70
2019-03-23T05:10:24.527Z,39.23
2019-03-23T05:12:53.926Z,41.63
2019-03-23T05:15:23.338Z,38.25
2019-03-23T05:17:52.745Z,39.85
2019-03-23T05:20:27.474Z,36.33
2019-03-23T05:22:57.151Z,38.23
2019-03-23T05:25:28.678Z,39.45
2019-03-23T05:28:11.869Z,39.35
2019-03-23T05:30:41.287Z,39.70
2019-03-23T05:33:10.935Z,40.10
2019-03-23T05:35:40.410Z,40.15
2019-03-23T05:38:09.801Z,40.25
2019-03-23T05:40:39.247Z,40.35
2019-03-23T05:43:08.662Z,40.23
2019-03-23T05:45:38.069Z,41.37
2019-03-23T05:48:07.461Z,42.73
2019-03-23T05:50:36.874Z,42.15
2019-03-23T05:53:06.343Z,44.42
2019-03-23T05:55:35.741Z,41.13
2019-03-23T05:58:05.204Z,45.08
2019-03-23T06:00:34.604Z,44.45
2019-03-23T06:03:04.024Z,45.80
2019-03-23T06:05:33.492Z,44.25
2019-03-23T06:08:02.886Z,45.08
2019-03-23T06:10:32.283Z,43.58
2019-03-23T06:13:01.671Z,45.05
2019-03-23T06:15:31.126Z,46.23
2019-03-23T06:18:00.529Z,44.55
2019-03-23T06:20:29.918Z,46.18
2019-03-23T06:22:59.325Z,42.85
2019-03-23T06:25:28.740Z,48.83
2019-03-23T06:27:58.206Z,51.42
2019-03-23T06:30:27.590Z,45.45
2019-03-23T06:32:59.272Z,46.33
2019-03-23T06:35:28.075Z,49.85
2019-03-23T06:37:57.478Z,45.48
2019-03-23T06:40:26.866Z,48.48
2019-03-23T06:43:10.018Z,46.42
2019-03-23T06:45:39.410Z,48.25
2019-03-23T06:48:08.819Z,47.90
2019-03-23T06:50:38.222Z,48.92
2019-03-23T06:53:07.632Z,48.15
2019-03-23T06:55:37.029Z,48.35
2019-03-23T06:58:06.453Z,49.95
2019-03-23T07:00:35.908Z,49.53
2019-03-23T07:03:05.286Z,49.40
2019-03-23T07:05:34.726Z,50.45
2019-03-23T07:08:04.130Z,49.95
2019-03-23T07:10:33.520Z,51.30
2019-03-23T07:13:02.934Z,52.33
2019-03-23T07:15:32.334Z,48.02
2019-03-23T07:18:02.803Z,48.55
2019-03-23T07:20:32.627Z,51.50
2019-03-23T07:23:02.156Z,48.38
2019-03-23T07:25:31.544Z,45.83
2019-03-23T07:28:01.022Z,47.38
2019-03-23T07:30:30.424Z,48.23
2019-03-23T07:32:59.930Z,45.67
2019-03-23T07:35:29.415Z,46.85
2019-03-23T07:37:58.829Z,48.95
2019-03-23T07:40:28.234Z,46.90
2019-03-23T07:42:57.642Z,45.38
2019-03-23T07:45:27.046Z,44.55
2019-03-23T07:47:56.516Z,48.40
2019-03-23T07:50:25.923Z,44.55
2019-03-23T07:52:55.322Z,45.15
2019-03-23T07:55:24.726Z,45.58
2019-03-23T07:57:54.132Z,44.93
2019-03-23T08:00:23.612Z,41.63
2019-03-23T08:02:53.019Z,42.05
2019-03-23T08:05:36.224Z,43.30
2019-03-23T08:08:05.690Z,41.55
2019-03-23T08:10:35.174Z,41.77
2019-03-23T08:13:04.912Z,40.43
2019-03-23T08:15:35.087Z,39.88
2019-03-23T08:18:18.245Z,42.35
2019-03-23T08:20:47.712Z,42.13
2019-03-23T08:23:17.107Z,41.37
2019-03-23T08:25:46.504Z,39.88
2019-03-23T08:28:15.915Z,39.92
2019-03-23T08:30:45.403Z,37.83
2019-03-23T08:33:14.823Z,38.42
2019-03-23T08:35:44.238Z,37.55
2019-03-23T08:38:13.638Z,37.38
2019-03-23T08:40:43.036Z,36.65
2019-03-23T08:43:12.433Z,35.83
2019-03-23T08:45:41.831Z,36.77
2019-03-23T08:48:11.372Z,38.33
2019-03-23T08:50:40.775Z,38.02
2019-03-23T08:53:10.158Z,37.35
2019-03-23T08:55:39.579Z,36.20
2019-03-23T08:58:08.974Z,41.48
2019-03-23T09:00:38.424Z,37.58
2019-03-23T09:03:07.930Z,37.65
2019-03-23T09:05:37.345Z,36.38
2019-03-23T09:08:07.980Z,35.98
2019-03-23T09:10:37.392Z,35.33
2019-03-23T09:13:06.775Z,33.58
2019-03-23T09:15:36.189Z,33.67
2019-03-23T09:18:05.576Z,32.48
2019-03-23T09:20:34.996Z,32.58
2019-03-23T09:23:04.400Z,34.38
2019-03-23T09:25:33.810Z,32.98
2019-03-23T09:28:03.220Z,31.68
2019-03-23T09:30:32.767Z,33.92
2019-03-23T09:33:02.184Z,33.08
2019-03-23T09:35:31.686Z,31.70
2019-03-23T09:38:01.182Z,34.00
2019-03-23T09:40:30.583Z,31.68
2019-03-23T09:42:59.992Z,30.80
2019-03-23T09:45:29.383Z,34.27
2019-03-23T09:47:58.805Z,33.20
2019-03-23T09:50:28.255Z,31.97
2019-03-23T09:52:57.747Z,31.97
2019-03-23T09:55:28.659Z,29.92
2019-03-23T09:57:59.285Z,30.82
2019-03-23T10:00:28.677Z,31.23
2019-03-23T10:02:58.192Z,30.90
2019-03-23T10:05:27.595Z,27.48
2019-03-23T10:07:56.977Z,29.25
2019-03-23T10:10:26.485Z,36.58
2019-03-23T10:12:55.888Z,77.82
2019-03-23T10:15:25.383Z,56.53
2019-03-23T10:17:54.819Z,47.25
2019-03-23T10:20:24.227Z,41.23
2019-03-23T10:22:53.725Z,47.60
2019-03-23T10:25:23.128Z,38.63
2019-03-23T10:27:52.527Z,37.00
2019-03-23T10:30:21.940Z,38.05
2019-03-23T10:32:51.403Z,36.90
2019-03-23T10:35:20.799Z,35.58
2019-03-23T10:37:50.183Z,36.03
2019-03-23T10:40:19.605Z,35.58
2019-03-23T10:42:48.997Z,34.85
2019-03-23T10:45:18.516Z,34.80
2019-03-23T10:47:47.965Z,34.60
2019-03-23T10:50:17.577Z,34.08
2019-03-23T10:52:47.690Z,33.88
2019-03-23T10:55:17.087Z,33.63
2019-03-23T10:57:46.504Z,33.78
2019-03-23T11:00:16.376Z,37.20
2019-03-23T11:02:45.832Z,35.03
2019-03-23T11:05:15.252Z,34.92
2019-03-23T11:07:44.703Z,34.23
2019-03-23T11:10:14.623Z,35.73
2019-03-23T11:12:44.025Z,36.15
2019-03-23T11:15:13.591Z,32.55
2019-03-23T11:17:43.063Z,36.17
2019-03-23T11:20:13.500Z,46.23
2019-03-23T11:22:42.900Z,39.83
2019-03-23T11:25:12.839Z,34.53
2019-03-23T11:27:42.287Z,34.48
2019-03-23T11:30:17.900Z,35.85
2019-03-23T11:32:47.283Z,36.85
2019-03-23T11:35:36.028Z,36.90
2019-03-23T11:38:05.516Z,35.78
2019-03-23T11:40:35.099Z,35.50
2019-03-23T11:43:04.564Z,34.88
2019-03-23T11:45:33.952Z,34.00
2019-03-23T11:48:03.348Z,36.80
2019-03-23T11:50:32.739Z,36.93
2019-03-23T11:53:02.153Z,38.28
2019-03-23T11:55:31.608Z,39.10
2019-03-23T11:58:01.067Z,40.98
2019-03-23T12:00:30.551Z,37.75
2019-03-23T12:02:59.937Z,39.53
2019-03-23T12:05:29.317Z,45.40
2019-03-23T12:07:58.716Z,45.20
2019-03-23T12:10:28.099Z,37.63
2019-03-23T12:12:57.487Z,36.53
2019-03-23T12:15:26.883Z,37.28
2019-03-23T12:17:56.435Z,35.03
2019-03-23T12:20:25.908Z,39.27
2019-03-23T12:22:55.299Z,38.28
2019-03-23T12:25:24.730Z,36.60
2019-03-23T12:27:54.614Z,35.52
2019-03-23T12:30:24.019Z,36.93
2019-03-23T12:32:53.496Z,36.05
2019-03-23T12:35:22.924Z,37.50
2019-03-23T12:37:52.499Z,36.58
2019-03-23T12:40:21.899Z,36.33
2019-03-23T12:42:51.297Z,36.83
2019-03-23T12:45:24.169Z,36.05
2019-03-23T12:47:53.551Z,36.17
2019-03-23T12:50:22.959Z,35.73
2019-03-23T12:52:52.428Z,37.05
2019-03-23T12:55:22.351Z,34.10
2019-03-23T12:57:51.758Z,38.75
2019-03-23T13:00:21.221Z,38.50
2019-03-23T13:02:50.627Z,35.60
2019-03-23T13:05:20.026Z,36.98
2019-03-23T13:07:49.475Z,37.08
2019-03-23T13:10:18.983Z,36.05
2019-03-23T13:12:48.379Z,37.78
2019-03-23T13:15:17.859Z,34.90
2019-03-23T13:17:47.254Z,35.83
2019-03-23T13:20:16.910Z,34.10
2019-03-23T13:22:46.462Z,32.73
2019-03-23T13:25:15.867Z,35.80
2019-03-23T13:27:45.323Z,36.68
2019-03-23T13:30:17.030Z,34.08
2019-03-23T13:32:46.431Z,36.25
2019-03-23T13:35:15.832Z,34.43
2019-03-23T13:37:45.351Z,35.38
2019-03-23T13:40:15.172Z,34.65
2019-03-23T13:42:44.555Z,33.90
2019-03-23T13:45:15.725Z,36.53
2019-03-23T13:47:45.114Z,34.50
2019-03-23T13:50:17.643Z,35.23
2019-03-23T13:52:47.051Z,50.78
2019-03-23T13:55:30.603Z,54.42
2019-03-23T13:58:08.614Z,40.63
2019-03-23T14:00:39.538Z,37.80
2019-03-23T14:03:09.511Z,37.78
2019-03-23T14:05:38.979Z,37.38
2019-03-23T14:08:08.383Z,36.70
2019-03-23T14:10:37.950Z,36.80
2019-03-23T14:13:07.358Z,34.45
2019-03-23T14:15:36.830Z,37.05
2019-03-23T14:18:06.239Z,35.23
2019-03-23T14:20:35.645Z,35.23
2019-03-23T14:23:05.043Z,35.58
2019-03-23T14:25:34.452Z,35.80
2019-03-23T14:28:04.035Z,33.40
2019-03-23T14:30:33.420Z,35.28
2019-03-23T14:33:02.903Z,33.83
2019-03-23T14:35:32.300Z,33.33
2019-03-23T14:38:01.751Z,33.98
2019-03-23T14:40:31.149Z,32.75
2019-03-23T14:43:00.603Z,34.30
2019-03-23T14:45:30.008Z,35.08
2019-03-23T14:47:59.471Z,33.73
2019-03-23T14:50:29.156Z,32.58
2019-03-23T14:52:58.559Z,31.10
2019-03-23T14:55:27.965Z,32.78
2019-03-23T14:57:57.345Z,34.05
2019-03-23T15:00:31.247Z,31.95
2019-03-23T15:03:00.671Z,32.58
2019-03-23T15:05:30.218Z,32.25
2019-03-23T15:08:13.248Z,32.85
2019-03-23T15:10:42.716Z,31.65
2019-03-23T15:13:12.123Z,30.12
2019-03-23T15:15:41.520Z,29.10
2019-03-23T15:18:10.930Z,30.40
2019-03-23T15:20:40.328Z,31.02
2019-03-23T15:23:09.791Z,31.27
2019-03-23T15:25:39.585Z,29.60
2019-03-23T15:28:09.214Z,31.73
2019-03-23T15:30:38.602Z,30.62
2019-03-23T15:33:08.030Z,30.30
2019-03-23T15:35:37.419Z,31.20
2019-03-23T15:38:06.821Z,30.25
2019-03-23T15:40:36.200Z,31.57
2019-03-23T15:43:05.607Z,30.92
2019-03-23T15:45:35.008Z,31.05
2019-03-23T15:48:04.411Z,31.90
2019-03-23T15:50:33.804Z,29.82
2019-03-23T15:53:03.191Z,30.75
2019-03-23T15:55:32.617Z,30.65
2019-03-23T15:58:02.002Z,30.82
2019-03-23T16:00:31.787Z,30.85
2019-03-23T16:03:20.503Z,29.40
2019-03-23T16:05:49.911Z,28.45
2019-03-23T16:08:19.298Z,32.15
2019-03-23T16:10:48.704Z,29.85
2019-03-23T16:13:18.167Z,30.05
2019-03-23T16:15:47.559Z,36.08
2019-03-23T16:18:16.946Z,30.75
2019-03-23T16:20:46.347Z,30.48
2019-03-23T16:23:15.882Z,29.40
2019-03-23T16:25:45.270Z,29.27
2019-03-23T16:28:14.751Z,29.85
2019-03-23T16:30:44.149Z,27.82
2019-03-23T16:33:13.548Z,28.47
2019-03-23T16:35:43.041Z,28.83
2019-03-23T16:38:12.451Z,28.77
2019-03-23T16:40:41.849Z,29.57
2019-03-23T16:43:11.251Z,29.92
2019-03-23T16:45:40.644Z,27.20
2019-03-23T16:48:10.042Z,28.07
2019-03-23T16:50:39.431Z,26.02
2019-03-23T16:53:08.829Z,27.48
2019-03-23T16:55:38.222Z,26.75
2019-03-23T16:58:15.702Z,26.25
2019-03-23T17:00:39.046Z,26.97
2019-03-23T17:03:08.599Z,28.42
2019-03-23T17:05:37.990Z,26.12
2019-03-23T17:08:08.319Z,28.35
2019-03-23T17:10:37.720Z,24.82
2019-03-23T17:13:07.233Z,25.12
2019-03-23T17:15:36.626Z,24.43
2019-03-23T17:18:06.371Z,24.70
2019-03-23T17:20:35.822Z,24.95
2019-03-23T17:23:05.226Z,24.67
2019-03-23T17:25:34.884Z,26.35
2019-03-23T17:28:04.427Z,24.00
2019-03-23T17:30:33.837Z,24.12
2019-03-23T17:33:03.251Z,23.25
2019-03-23T17:35:32.712Z,23.27
2019-03-23T17:38:03.097Z,23.05
2019-03-23T17:40:32.554Z,23.20
2019-03-23T17:43:05.879Z,22.52
2019-03-23T17:45:33.044Z,24.32
2019-03-23T17:48:02.459Z,21.70
2019-03-23T17:50:31.857Z,21.23
2019-03-23T17:53:01.433Z,21.62
2019-03-23T17:55:31.000Z,23.65
2019-03-23T17:58:00.403Z,20.68
2019-03-23T18:00:30.672Z,21.48
2019-03-23T18:03:00.782Z,20.40
2019-03-23T18:05:30.354Z,20.08
2019-03-23T18:07:59.827Z,19.32
2019-03-23T18:10:29.510Z,18.23
2019-03-23T18:12:58.911Z,17.57
2019-03-23T18:15:28.483Z,17.82
2019-03-23T18:17:57.881Z,18.60
2019-03-23T18:20:27.282Z,17.23
2019-03-23T18:22:56.743Z,17.25
2019-03-23T18:25:26.183Z,17.52
2019-03-23T18:27:56.246Z,17.48
2019-03-23T18:30:37.455Z,16.20
2019-03-23T18:33:07.270Z,15.35
2019-03-23T18:35:36.815Z,17.02
2019-03-23T18:38:06.397Z,16.05
2019-03-23T18:40:36.359Z,15.00
2019-03-23T18:43:06.213Z,15.55
2019-03-23T18:45:36.349Z,16.00
2019-03-23T18:48:06.019Z,15.88
2019-03-23T18:50:36.471Z,15.90
2019-03-23T18:53:06.018Z,15.35
2019-03-23T18:55:35.554Z,15.68
2019-03-23T18:58:05.130Z,15.68
2019-03-23T19:00:39.753Z,13.30
2019-03-23T19:03:11.233Z,14.38
2019-03-23T19:05:54.551Z,14.47
2019-03-23T19:08:25.046Z,15.45
2019-03-23T19:10:54.442Z,13.65
2019-03-23T19:13:23.847Z,13.65
2019-03-23T19:15:53.247Z,13.65
2019-03-23T19:18:22.647Z,14.05
2019-03-23T19:20:52.046Z,12.93
2019-03-23T19:23:21.449Z,13.25
2019-03-23T19:25:50.854Z,13.95
2019-03-23T19:28:20.319Z,12.35
2019-03-23T19:30:49.714Z,13.08
2019-03-23T19:33:19.114Z,12.60
2019-03-23T19:35:48.526Z,11.90
2019-03-23T19:38:18.240Z,12.55
2019-03-23T19:40:48.080Z,13.03
2019-03-23T19:43:17.500Z,12.82
2019-03-23T19:45:46.934Z,12.13
2019-03-23T19:48:16.332Z,13.62
2019-03-23T19:50:45.733Z,13.93
2019-03-23T19:53:15.128Z,15.15
2019-03-23T19:55:44.532Z,16.05
2019-03-23T19:58:13.926Z,16.12
2019-03-23T20:00:43.411Z,14.98
2019-03-23T20:03:12.874Z,14.18
2019-03-23T20:05:42.338Z,15.18
2019-03-23T20:08:11.722Z,15.03
2019-03-23T20:10:41.194Z,14.98
2019-03-23T20:13:10.583Z,15.20
2019-03-23T20:15:39.978Z,15.03
2019-03-23T20:18:09.533Z,15.50
2019-03-23T20:20:38.963Z,15.00
2019-03-23T20:23:08.416Z,16.50
2019-03-23T20:25:39.691Z,17.10
2019-03-23T20:28:08.978Z,16.55
2019-03-23T20:30:39.447Z,16.80
2019-03-23T20:33:15.306Z,18.32
2019-03-23T20:35:39.914Z,17.05
2019-03-23T20:38:09.327Z,17.65
2019-03-23T20:40:38.784Z,16.97
2019-03-23T20:43:08.214Z,15.45
2019-03-23T20:45:37.627Z,16.77
2019-03-23T20:48:07.046Z,16.50
2019-03-23T20:50:38.747Z,16.70
2019-03-23T20:53:08.549Z,15.58
2019-03-23T20:55:38.061Z,17.30
2019-03-23T20:58:07.435Z,16.42
2019-03-23T21:00:37.120Z,16.70
2019-03-23T21:03:06.568Z,15.95
2019-03-23T21:05:37.019Z,15.83
2019-03-23T21:08:06.426Z,17.05
2019-03-23T21:10:35.829Z,15.10
2019-03-23T21:13:05.252Z,20.55
2019-03-23T21:15:34.649Z,21.77
2019-03-23T21:18:04.057Z,14.13
2019-03-23T21:20:33.621Z,13.10
2019-03-23T21:23:03.009Z,13.93
2019-03-23T21:25:32.403Z,13.08
2019-03-23T21:28:01.815Z,12.85
2019-03-23T21:30:31.603Z,11.53
2019-03-23T21:33:00.987Z,11.97
2019-03-23T21:35:30.392Z,10.93
2019-03-23T21:37:59.858Z,10.25
2019-03-23T21:40:29.255Z,9.75
2019-03-23T21:42:58.867Z,9.48
2019-03-23T21:45:28.267Z,8.38
2019-03-23T21:47:57.736Z,9.80
2019-03-23T21:50:27.196Z,7.72
2019-03-23T21:52:56.590Z,7.75
2019-03-23T21:55:25.972Z,7.97
2019-03-23T21:57:55.436Z,7.58
2019-03-23T22:00:33.057Z,7.55
2019-03-23T22:03:02.533Z,6.83
2019-03-23T22:05:32.150Z,6.20
2019-03-23T22:08:01.543Z,6.30
2019-03-23T22:10:30.922Z,5.47
2019-03-23T22:13:00.387Z,5.42
2019-03-23T22:15:31.611Z,5.65
2019-03-23T22:18:15.395Z,6.05
2019-03-23T22:20:44.799Z,4.47
2019-03-23T22:23:14.185Z,5.00
2019-03-23T22:25:43.583Z,4.15
2019-03-23T22:28:12.966Z,4.35
2019-03-23T22:30:42.531Z,3.77
2019-03-23T22:33:11.911Z,3.80
2019-03-23T22:35:41.315Z,4.25
2019-03-23T22:38:10.682Z,4.33
2019-03-23T22:40:41.142Z,4.22
2019-03-23T22:43:10.534Z,3.87
2019-03-23T22:45:39.985Z,3.65
2019-03-23T22:48:09.393Z,3.75
2019-03-23T22:50:38.840Z,3.47
2019-03-23T22:53:08.245Z,3.67
2019-03-23T22:55:39.406Z,3.92
2019-03-23T22:58:08.934Z,4.10
2019-03-23T23:00:42.294Z,7.17
2019-03-23T23:03:12.398Z,5.33
2019-03-23T23:05:42.956Z,3.85
2019-03-23T23:08:12.489Z,4.30
2019-03-23T23:10:41.899Z,4.20
2019-03-23T23:13:11.853Z,4.67
2019-03-23T23:15:41.244Z,4.28
2019-03-23T23:18:10.636Z,3.98
2019-03-23T23:20:40.031Z,4.08
2019-03-23T23:23:09.580Z,4.10
2019-03-23T23:25:38.969Z,4.10
2019-03-23T23:28:08.482Z,4.00
2019-03-23T23:30:37.884Z,4.72
2019-03-23T23:33:07.359Z,4.67
2019-03-23T23:35:36.755Z,4.72
2019-03-23T23:38:06.219Z,4.37
2019-03-23T23:40:35.666Z,5.05
2019-03-23T23:43:05.134Z,4.50
2019-03-23T23:45:34.577Z,5.50
2019-03-23T23:48:03.988Z,4.62
2019-03-23T23:50:33.450Z,4.80
2019-03-23T23:53:02.903Z,4.95
2019-03-23T23:55:46.187Z,5.05
2019-03-23T23:58:15.578Z,4.20
